Time;durP1;ratioP1;P1;durP2;ratioP2;P2;SDS_P1;SDS_P2;PMS_P1;PMS_P2;Temp;Humidity;BMP_temperature;BMP_pressure;BME280_temperature;BME280_humidity;BME280_pressure;Samples;Min_cycle;Max_cycle;Signal;HPM_P1;HPM_P2
2023/03/17 00:00:20;;;;;;;0.60;0.60;;;;;;;3.54;100.00;99612.84;5111482;28;20209;-63
2023/03/17 00:02:50;;;;;;;1.03;0.67;;;;;;;3.48;100.00;99608.84;5111215;28;20613;-63
2023/03/17 00:05:21;;;;;;;0.77;0.60;;;;;;;3.40;100.00;99606.59;5111329;28;20430;-62
2023/03/17 00:07:49;;;;;;;0.43;0.37;;;;;;;3.49;100.00;99605.44;5111396;28;20268;-59
2023/03/17 00:10:18;;;;;;;0.30;0.30;;;;;;;3.47;100.00;99603.84;5111428;28;20238;-59
2023/03/17 00:12:46;;;;;;;0.57;0.50;;;;;;;3.61;100.00;99610.06;5111085;28;20221;-59
2023/03/17 00:15:14;;;;;;;0.30;0.30;;;;;;;3.65;100.00;99609.97;5111118;28;20731;-59
2023/03/17 00:17:42;;;;;;;0.40;0.40;;;;;;;3.63;100.00;99607.47;5110652;28;20213;-59
2023/03/17 00:20:22;;;;;;;0.80;0.80;;;;;;;3.69;100.00;99611.47;5111020;28;20205;-63
2023/03/17 00:22:49;;;;;;;0.90;0.73;;;;;;;3.62;100.00;99606.66;5110528;28;20228;-63
2023/03/17 00:25:23;;;;;;;0.50;0.50;;;;;;;3.73;100.00;99608.81;5110874;28;20241;-60
2023/03/17 00:27:52;;;;;;;0.20;0.20;;;;;;;3.68;100.00;99607.31;5110614;28;20240;-62
2023/03/17 00:30:20;;;;;;;0.60;0.60;;;;;;;3.74;100.00;99610.44;5110766;28;20208;-60
2023/03/17 00:32:47;;;;;;;1.77;0.70;;;;;;;3.73;100.00;99608.81;5110585;28;20593;-63
2023/03/17 00:35:22;;;;;;;2.87;0.63;;;;;;;3.81;100.00;99611.03;5110752;28;20215;-63
2023/03/17 00:37:51;;;;;;;2.00;1.10;;;;;;;3.91;100.00;99607.31;5110527;28;20228;-63
2023/03/17 00:40:21;;;;;;;0.53;0.53;;;;;;;3.88;100.00;99611.66;5110721;28;20199;-59
2023/03/17 00:42:49;;;;;;;0.73;0.50;;;;;;;3.91;100.00;99611.56;5111064;28;20228;-62
2023/03/17 00:45:16;;;;;;;0.60;0.60;;;;;;;3.87;100.00;99610.84;5110543;28;20231;-63
2023/03/17 00:47:44;;;;;;;0.73;0.50;;;;;;;3.69;100.00;99612.31;5110433;28;20224;-63
2023/03/17 00:50:17;;;;;;;0.50;0.50;;;;;;;3.61;100.00;99609.25;5110323;28;20262;-59
2023/03/17 00:52:46;;;;;;;0.40;0.40;;;;;;;3.72;100.00;99617.25;5110146;28;20727;-59
2023/03/17 00:55:14;;;;;;;0.27;0.27;;;;;;;3.74;100.00;99607.91;5110327;28;20224;-59
2023/03/17 00:57:42;;;;;;;0.47;0.40;;;;;;;3.82;100.00;99608.47;5110527;27;20213;-59
2023/03/17 01:00:20;;;;;;;0.30;0.30;;;;;;;3.73;100.00;99613.88;5110187;28;20212;-59
2023/03/17 01:02:47;;;;;;;0.40;0.40;;;;;;;3.83;100.00;99617.69;5110334;28;20590;-59
2023/03/17 01:05:15;;;;;;;0.20;0.20;;;;;;;3.93;100.00;99615.69;5109729;28;20243;-59
2023/03/17 01:07:46;;;;;;;0.80;0.80;;;;;;;3.94;100.00;99616.50;5109846;28;20713;-63
2023/03/17 01:10:20;;;;;;;0.60;0.60;;;;;;;3.92;100.00;99618.25;5110165;28;20295;-63
2023/03/17 01:12:47;;;;;;;0.77;0.70;;;;;;;3.92;100.00;99623.31;5110161;28;20217;-63
2023/03/17 01:15:14;;;;;;;1.80;0.60;;;;;;;3.84;100.00;99626.97;5110152;28;20211;-63
2023/03/17 01:17:42;;;;;;;0.80;0.80;;;;;;;3.89;100.00;99623.41;5109777;28;20243;-63
2023/03/17 01:20:15;;;;;;;0.40;0.37;;;;;;;3.94;100.00;99624.09;5110069;28;20209;-63
2023/03/17 01:22:42;;;;;;;0.67;0.67;;;;;;;3.91;100.00;99621.66;5109880;28;20228;-63
2023/03/17 01:25:10;;;;;;;0.87;0.40;;;;;;;3.82;100.00;99623.66;5109911;28;20209;-63
2023/03/17 01:27:40;;;;;;;0.40;0.40;;;;;;;3.86;100.00;99630.22;5109947;28;20243;-63
2023/03/17 01:30:26;;;;;;;1.30;0.60;;;;;;;3.91;100.00;99634.31;5110179;28;20259;-59
2023/03/17 01:32:53;;;;;;;1.40;0.70;;;;;;;3.97;100.00;99634.09;5109763;28;20213;-60
2023/03/17 01:35:20;;;;;;;0.23;0.23;;;;;;;4.02;100.00;99632.22;5110045;28;20205;-60
2023/03/17 01:37:47;;;;;;;0.90;0.57;;;;;;;3.99;100.00;99638.22;5109719;28;20216;-60
2023/03/17 01:40:17;;;;;;;2.40;1.00;;;;;;;4.03;100.00;99642.28;5109892;28;20205;-60
2023/03/17 01:42:51;;;;;;;2.30;0.73;;;;;;;4.07;100.00;99645.50;5109730;28;20261;-60
2023/03/17 01:45:54;;;;;;;1.77;0.80;;;;;;;4.08;100.00;99644.66;5109915;28;20239;-60
2023/03/17 01:48:22;;;;;;;0.43;0.43;;;;;;;4.07;100.00;99658.16;5109520;28;20224;-63
2023/03/17 01:50:50;;;;;;;0.43;0.43;;;;;;;4.07;100.00;99658.16;5109624;28;20209;-60
2023/03/17 01:53:19;;;;;;;0.60;0.60;;;;;;;4.11;100.00;99657.19;5109635;28;20266;-63
2023/03/17 01:55:46;;;;;;;0.40;0.40;;;;;;;4.04;100.00;99655.75;5109686;28;20208;-59
2023/03/17 01:58:16;;;;;;;0.60;0.60;;;;;;;4.09;100.00;99662.28;5109738;28;20224;-60
2023/03/17 02:00:45;;;;;;;1.10;1.03;;;;;;;4.11;100.00;99662.25;5109668;28;20205;-63
2023/03/17 02:03:12;;;;;;;0.97;0.90;;;;;;;3.94;100.00;99662.84;5109550;28;20664;-60
2023/03/17 02:05:39;;;;;;;2.03;0.73;;;;;;;3.99;100.00;99671.09;5109612;28;20212;-59
2023/03/17 02:08:11;;;;;;;0.97;0.87;;;;;;;4.04;100.00;99665.88;5109056;28;20217;-62
2023/03/17 02:10:38;;;;;;;0.33;0.33;;;;;;;3.99;100.00;99670.28;5109264;28;20738;-63
2023/03/17 02:13:06;;;;;;;1.13;1.03;;;;;;;3.67;100.00;99664.66;5109102;28;20217;-63
2023/03/17 02:15:40;;;;;;;0.43;0.43;;;;;;;3.69;100.00;99662.06;5109330;28;20288;-59
2023/03/17 02:18:08;;;;;;;0.70;0.70;;;;;;;3.82;100.00;99669.16;5111949;28;20233;-59
2023/03/17 02:21:34;;;;;;;1.07;0.60;;;;;;;3.97;100.00;99672.03;5113170;28;20197;-59
2023/03/17 02:24:04;;;;;;;0.50;0.50;;;;;;;4.11;100.00;99687.56;5049793;28;20348;-63
2023/03/17 02:26:35;;;;;;;0.43;0.43;;;;;;;4.12;100.00;99691.72;5050036;28;20210;-59
2023/03/17 02:29:02;;;;;;;0.43;0.43;;;;;;;4.05;100.00;99690.31;5091737;28;20285;-63
2023/03/17 02:31:29;;;;;;;0.97;0.93;;;;;;;4.01;100.00;99683.69;5113150;28;20206;-63
2023/03/17 02:33:56;;;;;;;1.00;0.37;;;;;;;3.96;100.00;99685.59;5112837;28;20217;-63
2023/03/17 02:36:24;;;;;;;1.10;0.70;;;;;;;3.93;100.00;99678.09;5113036;28;20205;-63
2023/03/17 02:38:52;;;;;;;0.73;0.73;;;;;;;3.92;100.00;99689.06;5112744;28;20217;-63
2023/03/17 02:41:19;;;;;;;0.43;0.40;;;;;;;3.99;100.00;99693.06;5113041;28;20209;-59
2023/03/17 02:43:46;;;;;;;1.27;1.07;;;;;;;3.92;100.00;99689.91;5112754;28;20209;-63
2023/03/17 02:46:13;;;;;;;0.53;0.47;;;;;;;3.91;100.00;99690.78;5112922;28;20201;-60
2023/03/17 02:48:41;;;;;;;1.80;1.07;;;;;;;3.95;100.00;99694.03;5112735;28;20233;-59
2023/03/17 02:51:08;;;;;;;1.37;0.90;;;;;;;3.57;100.00;99693.66;5112539;28;20209;-63
2023/03/17 02:53:35;;;;;;;0.63;0.63;;;;;;;3.70;100.00;99702.47;5112307;28;20604;-63
2023/03/17 02:56:04;;;;;;;3.63;1.17;;;;;;;3.67;100.00;99700.06;5112388;28;20225;-59
2023/03/17 02:58:31;;;;;;;0.60;0.60;;;;;;;3.64;100.00;99705.22;5112837;28;20246;-63
2023/03/17 03:00:58;;;;;;;2.10;0.67;;;;;;;3.63;100.00;99708.59;5112471;28;20205;-59
2023/03/17 03:03:25;;;;;;;3.40;0.90;;;;;;;3.59;100.00;99709.59;5112323;28;20220;-63
2023/03/17 03:05:52;;;;;;;1.30;1.20;;;;;;;3.67;100.00;99710.19;5112471;28;20197;-59
2023/03/17 03:08:19;;;;;;;1.37;0.80;;;;;;;3.65;100.00;99709.41;5112418;28;20217;-63
2023/03/17 03:10:46;;;;;;;0.50;0.50;;;;;;;3.60;100.00;99708.72;5112435;28;20220;-63
2023/03/17 03:13:14;;;;;;;0.60;0.60;;;;;;;3.66;100.00;99718.63;5112155;27;20222;-63
2023/03/17 03:15:42;;;;;;;0.70;0.70;;;;;;;3.72;100.00;99726.00;5112195;28;20204;-62
2023/03/17 03:18:11;;;;;;;1.40;0.70;;;;;;;3.69;100.00;99722.75;5111911;28;20239;-59
2023/03/17 03:20:38;;;;;;;0.73;0.73;;;;;;;3.77;100.00;99724.13;5112010;28;20240;-63
2023/03/17 03:23:04;;;;;;;1.27;1.03;;;;;;;3.83;100.00;99723.94;5111859;28;20489;-59
2023/03/17 03:25:31;;;;;;;0.63;0.63;;;;;;;3.93;100.00;99727.00;5112231;28;20197;-60
2023/03/17 03:27:58;;;;;;;0.90;0.50;;;;;;;3.90;100.00;99723.72;5111830;28;20217;-62
2023/03/17 03:30:27;;;;;;;0.30;0.30;;;;;;;3.94;100.00;99732.88;5111743;28;20236;-60
2023/03/17 03:32:53;;;;;;;1.57;0.80;;;;;;;3.90;100.00;99726.25;5111754;28;20650;-59
2023/03/17 03:35:20;;;;;;;0.97;0.77;;;;;;;3.97;100.00;99732.75;5112112;28;20205;-60
2023/03/17 03:37:47;;;;;;;1.40;0.83;;;;;;;4.00;100.00;99736.00;5111662;28;20224;-62
2023/03/17 03:40:14;;;;;;;0.50;0.50;;;;;;;4.05;100.00;99740.91;5112137;28;20201;-59
2023/03/17 03:42:42;;;;;;;1.30;0.73;;;;;;;4.06;100.00;99747.63;5111656;28;20217;-63
2023/03/17 03:45:10;;;;;;;2.10;0.90;;;;;;;4.05;100.00;99749.31;5111688;28;20265;-63
2023/03/17 03:47:38;;;;;;;1.93;0.90;;;;;;;4.03;100.00;99747.72;5111938;28;20220;-59
2023/03/17 03:50:06;;;;;;;0.90;0.80;;;;;;;4.00;100.00;99752.88;5111479;28;20225;-59
2023/03/17 03:52:33;;;;;;;1.30;0.97;;;;;;;3.80;100.00;99754.38;5111954;28;20220;-63
2023/03/17 03:54:59;;;;;;;0.67;0.67;;;;;;;3.77;100.00;99757.03;5111693;28;20197;-59
2023/03/17 03:57:26;;;;;;;1.80;0.97;;;;;;;3.83;100.00;99754.28;5111490;28;20217;-59
2023/03/17 03:59:53;;;;;;;0.40;0.40;;;;;;;3.77;100.00;99762.06;5111488;28;20660;-63
2023/03/17 04:02:20;;;;;;;0.77;0.60;;;;;;;3.63;100.00;99749.88;5111491;28;20223;-63
2023/03/17 04:04:48;;;;;;;0.20;0.20;;;;;;;3.53;100.00;99753.59;5111513;28;20200;-63
2023/03/17 04:07:15;;;;;;;0.90;0.67;;;;;;;3.45;100.00;99749.69;5111190;28;20197;-59
2023/03/17 04:09:42;;;;;;;1.30;0.93;;;;;;;3.48;100.00;99749.56;5111075;28;20756;-63
2023/03/17 04:12:10;;;;;;;1.03;0.70;;;;;;;3.46;100.00;99751.31;5110958;28;20190;-59
2023/03/17 04:14:37;;;;;;;0.47;0.47;;;;;;;3.52;100.00;99746.06;5111180;28;20204;-59
2023/03/17 04:17:04;;;;;;;0.53;0.53;;;;;;;3.53;100.00;99752.78;5111064;28;20205;-60
2023/03/17 04:19:31;;;;;;;0.70;0.70;;;;;;;3.56;100.00;99747.63;5111287;28;20571;-62
2023/03/17 04:21:59;;;;;;;4.17;1.07;;;;;;;3.57;100.00;99752.63;5111087;28;20193;-63
2023/03/17 04:24:27;;;;;;;1.20;1.00;;;;;;;3.54;100.00;99759.47;5110880;28;20201;-63
2023/03/17 04:26:55;;;;;;;0.83;0.70;;;;;;;3.44;100.00;99760.69;5111110;27;20202;-63
2023/03/17 04:29:21;;;;;;;1.70;0.57;;;;;;;3.30;100.00;99761.94;5110788;28;20225;-62
2023/03/17 04:31:48;;;;;;;1.43;1.00;;;;;;;3.21;100.00;99759.69;5111047;28;20200;-63
2023/03/17 04:34:17;;;;;;;0.20;0.20;;;;;;;3.29;100.00;99775.44;5110728;28;20216;-63
2023/03/17 04:36:45;;;;;;;0.73;0.73;;;;;;;3.30;100.00;99782.13;5110848;28;20297;-60
2023/03/17 04:39:14;;;;;;;1.00;0.90;;;;;;;3.30;100.00;99782.13;5110485;28;20217;-59
2023/03/17 04:41:41;;;;;;;0.73;0.73;;;;;;;3.15;100.00;99785.97;5109562;28;20288;-59
2023/03/17 04:44:08;;;;;;;0.90;0.90;;;;;;;3.11;100.00;99784.44;5110495;28;20243;-59
2023/03/17 04:46:37;;;;;;;0.93;0.93;;;;;;;3.16;100.00;99785.09;5110518;28;20204;-59
2023/03/17 04:49:03;;;;;;;1.03;0.73;;;;;;;3.24;100.00;99786.56;5110507;28;20257;-62
2023/03/17 04:51:31;;;;;;;1.73;1.63;;;;;;;3.23;100.00;99784.91;5110644;28;20203;-62
2023/03/17 04:53:58;;;;;;;1.40;1.30;;;;;;;3.06;100.00;99793.00;5110426;28;20217;-59
2023/03/17 04:56:26;;;;;;;2.10;1.60;;;;;;;3.00;100.00;99793.19;5110481;28;20193;-63
2023/03/17 04:58:53;;;;;;;1.37;1.17;;;;;;;2.92;100.00;99789.19;5110315;28;20243;-59
2023/03/17 05:01:20;;;;;;;1.80;1.07;;;;;;;2.98;100.00;99794.94;5110159;28;20197;-62
2023/03/17 05:03:47;;;;;;;1.97;1.77;;;;;;;3.08;100.00;99796.31;5110216;28;20217;-62
2023/03/17 05:06:15;;;;;;;0.80;0.80;;;;;;;3.12;100.00;99797.88;5110431;28;20333;-62
2023/03/17 05:08:43;;;;;;;2.50;1.20;;;;;;;3.13;100.00;99799.53;5110436;28;20221;-63
2023/03/17 05:11:11;;;;;;;0.60;0.60;;;;;;;3.21;100.00;99806.88;5110111;28;20256;-59
2023/03/17 05:13:40;;;;;;;1.33;1.03;;;;;;;3.12;100.00;99802.94;5109836;28;20217;-63
2023/03/17 05:16:08;;;;;;;0.90;0.90;;;;;;;3.15;100.00;99810.41;5110043;28;20201;-63
2023/03/17 05:18:36;;;;;;;0.37;0.37;;;;;;;3.20;100.00;99811.13;5109942;28;20608;-63
2023/03/17 05:21:03;;;;;;;0.80;0.53;;;;;;;3.20;100.00;99818.69;5109870;28;20680;-63
2023/03/17 05:23:30;;;;;;;0.83;0.83;;;;;;;3.22;100.00;99819.44;5109628;28;20219;-59
2023/03/17 05:25:57;;;;;;;1.57;0.87;;;;;;;3.15;100.00;99818.00;5110342;28;20198;-59
2023/03/17 05:28:24;;;;;;;1.20;1.10;;;;;;;3.30;100.00;99820.06;5109796;28;20220;-63
2023/03/17 05:30:53;;;;;;;2.77;1.33;;;;;;;3.25;100.00;99818.53;5109803;28;20233;-59
2023/03/17 05:33:20;;;;;;;1.03;0.60;;;;;;;3.17;100.00;99826.34;5109697;28;20770;-62
2023/03/17 05:35:47;;;;;;;0.70;0.67;;;;;;;3.23;100.00;99825.31;5110098;28;20201;-63
2023/03/17 05:38:15;;;;;;;0.93;0.83;;;;;;;3.30;100.00;99825.09;5109834;28;20744;-63
2023/03/17 05:40:42;;;;;;;0.97;0.87;;;;;;;3.22;100.00;99834.63;5109745;28;20205;-59
2023/03/17 05:43:09;;;;;;;0.60;0.60;;;;;;;3.16;100.00;99835.63;5109545;28;20274;-59
2023/03/17 05:45:37;;;;;;;0.87;0.77;;;;;;;3.16;100.00;99838.16;5109726;28;20243;-59
2023/03/17 05:48:06;;;;;;;0.90;0.90;;;;;;;3.12;100.00;99834.06;5109716;28;20217;-59
2023/03/17 05:50:33;;;;;;;1.33;0.60;;;;;;;3.11;100.00;99839.16;5109604;28;20260;-62
2023/03/17 05:53:00;;;;;;;0.97;0.90;;;;;;;3.18;100.00;99838.13;5112418;28;20768;-59
2023/03/17 05:55:27;;;;;;;0.83;0.83;;;;;;;3.31;100.00;99839.38;5113809;28;20193;-59
2023/03/17 05:57:54;;;;;;;3.10;1.23;;;;;;;3.33;100.00;99847.75;5113639;28;20209;-63
2023/03/17 06:00:22;;;;;;;3.03;1.50;;;;;;;3.33;100.00;99846.94;5113968;28;20201;-59
2023/03/17 06:02:49;;;;;;;0.60;0.60;;;;;;;3.47;100.00;99846.53;5113370;28;20224;-59
2023/03/17 06:05:18;;;;;;;1.07;0.97;;;;;;;3.65;100.00;99847.66;5113758;28;20197;-63
2023/03/17 06:07:45;;;;;;;0.60;0.60;;;;;;;3.70;100.00;99850.84;5113686;27;20221;-59
2023/03/17 06:10:12;;;;;;;1.10;0.77;;;;;;;3.66;100.00;99855.16;5113664;28;20231;-63
2023/03/17 06:12:39;;;;;;;1.80;0.90;;;;;;;3.79;100.00;99856.44;5113098;28;20217;-63
2023/03/17 06:15:08;;;;;;;1.27;1.17;;;;;;;3.90;100.00;99867.91;5113391;28;20204;-62
2023/03/17 06:17:36;;;;;;;0.83;0.60;;;;;;;4.02;100.00;99868.34;5113175;28;20218;-63
2023/03/17 06:20:04;;;;;;;1.47;1.07;;;;;;;4.13;100.00;99874.75;5113492;28;20201;-59
2023/03/17 06:22:32;;;;;;;1.10;0.70;;;;;;;4.17;100.00;99876.31;5113861;28;20472;-62
2023/03/17 06:24:59;;;;;;;0.60;0.60;;;;;;;4.16;100.00;99884.75;5113641;28;20201;-63
2023/03/17 06:27:27;;;;;;;1.20;0.80;;;;;;;4.13;100.00;99884.88;5113560;28;20220;-59
2023/03/17 06:29:53;;;;;;;0.33;0.33;;;;;;;4.12;100.00;99894.16;5113204;28;20233;-59
2023/03/17 06:32:20;;;;;;;1.00;0.47;;;;;;;4.18;100.00;99893.97;5113402;28;20228;-60
2023/03/17 06:34:48;;;;;;;1.33;1.13;;;;;;;4.25;100.00;99892.91;5113483;28;20353;-58
2023/03/17 06:37:15;;;;;;;1.80;1.33;;;;;;;4.11;100.00;99902.66;5113358;28;20634;-62
2023/03/17 06:39:44;;;;;;;1.73;1.00;;;;;;;4.25;100.00;99900.50;5113049;28;20197;-58
2023/03/17 06:42:11;;;;;;;1.30;0.93;;;;;;;4.25;100.00;99908.09;5113375;28;20682;-61
2023/03/17 06:44:38;;;;;;;0.70;0.70;;;;;;;4.19;100.00;99910.81;5113168;28;20201;-59
2023/03/17 06:47:05;;;;;;;1.03;0.53;;;;;;;4.23;100.00;99912.38;5113108;28;20193;-60
2023/03/17 06:49:32;;;;;;;2.67;1.13;;;;;;;4.05;100.00;99915.50;5113146;28;20201;-59
2023/03/17 06:51:59;;;;;;;0.63;0.63;;;;;;;4.01;100.00;99913.94;5113474;28;20597;-59
2023/03/17 06:54:26;;;;;;;1.67;0.60;;;;;;;3.97;100.00;99922.50;5113144;28;20193;-63
2023/03/17 06:56:55;;;;;;;0.90;0.77;;;;;;;3.96;100.00;99919.16;5113091;28;20696;-62
2023/03/17 06:59:23;;;;;;;0.60;0.50;;;;;;;3.93;100.00;99923.50;5112905;28;20260;-62
2023/03/17 07:01:50;;;;;;;0.60;0.60;;;;;;;3.94;100.00;99918.38;5112703;28;20208;-59
2023/03/17 07:04:18;;;;;;;4.17;0.70;;;;;;;3.95;100.00;99926.78;5111574;28;20221;-59
2023/03/17 07:06:45;;;;;;;0.93;0.90;;;;;;;3.94;100.00;99925.13;5113042;28;20960;-62
2023/03/17 07:09:12;;;;;;;1.03;0.77;;;;;;;3.98;100.00;99922.44;5112668;28;20228;-62
2023/03/17 07:11:40;;;;;;;2.07;1.30;;;;;;;4.14;100.00;99927.03;5112745;28;20624;-59
2023/03/17 07:14:08;;;;;;;2.00;0.60;;;;;;;4.12;100.00;99919.47;5112336;28;20834;-64
2023/03/17 07:16:36;;;;;;;0.47;0.47;;;;;;;4.07;100.00;99921.31;5112697;28;20193;-64
2023/03/17 07:19:03;;;;;;;4.13;0.97;;;;;;;4.24;100.00;99915.72;5112348;28;20221;-64
2023/03/17 07:21:30;;;;;;;3.33;2.10;;;;;;;4.39;100.00;99921.97;5112626;28;20604;-60
2023/03/17 07:23:57;;;;;;;1.30;1.20;;;;;;;4.40;100.00;99929.53;5112142;28;20213;-64
2023/03/17 07:26:24;;;;;;;4.57;1.53;;;;;;;4.54;100.00;99931.59;5112693;28;20205;-64
2023/03/17 07:28:51;;;;;;;1.00;0.77;;;;;;;4.59;100.00;99932.25;5112134;28;20217;-60
2023/03/17 07:31:19;;;;;;;1.03;0.93;;;;;;;4.52;100.00;99930.81;5112212;28;20233;-61
2023/03/17 07:33:46;;;;;;;1.80;0.70;;;;;;;4.49;100.00;99939.34;5112067;28;20214;-60
2023/03/17 07:36:14;;;;;;;0.87;0.83;;;;;;;4.52;100.00;99933.34;5112528;28;20207;-60
2023/03/17 07:38:42;;;;;;;0.57;0.47;;;;;;;4.56;100.00;99941.66;5112158;28;20562;-59
2023/03/17 07:41:09;;;;;;;4.50;1.30;;;;;;;4.63;100.00;99946.47;5112047;28;20208;-59
2023/03/17 07:43:37;;;;;;;0.60;0.60;;;;;;;4.68;100.00;99942.09;5111889;28;20690;-60
2023/03/17 07:46:04;;;;;;;0.70;0.70;;;;;;;4.89;100.00;99942.22;5111920;27;20197;-59
2023/03/17 07:48:35;;;;;;;0.93;0.83;;;;;;;5.06;100.00;99951.75;5111940;28;20224;-64
2023/03/17 07:51:02;;;;;;;0.87;0.83;;;;;;;4.96;100.00;99949.53;5111949;28;20665;-60
2023/03/17 07:53:28;;;;;;;1.10;0.67;;;;;;;4.94;100.00;99953.00;5111596;28;20217;-64
2023/03/17 07:55:55;;;;;;;3.40;1.10;;;;;;;4.90;100.00;99951.47;5111957;28;20200;-64
2023/03/17 07:58:22;;;;;;;1.17;0.70;;;;;;;5.04;100.00;99951.81;5111720;28;20221;-62
2023/03/17 08:00:49;;;;;;;0.50;0.50;;;;;;;5.14;100.00;99953.13;5111544;28;20235;-64
2023/03/17 08:03:16;;;;;;;1.17;1.00;;;;;;;5.19;100.00;99958.88;5111525;28;20316;-60
2023/03/17 08:05:45;;;;;;;0.53;0.53;;;;;;;5.31;100.00;99952.53;5111613;28;20216;-64
2023/03/17 08:08:12;;;;;;;1.43;1.10;;;;;;;5.34;100.00;99954.94;5111349;28;20780;-64
2023/03/17 08:10:39;;;;;;;0.40;0.40;;;;;;;5.46;100.00;99948.59;5111264;27;20225;-64
2023/03/17 08:13:06;;;;;;;0.80;0.67;;;;;;;5.34;100.00;99954.13;5111330;28;20228;-64
2023/03/17 08:15:33;;;;;;;0.87;0.63;;;;;;;5.28;100.00;99957.69;5110888;28;20232;-64
2023/03/17 08:18:01;;;;;;;2.10;0.67;;;;;;;5.55;100.00;99952.50;5111176;28;20225;-63
2023/03/17 08:20:28;;;;;;;0.83;0.83;;;;;;;5.76;100.00;99961.00;5111487;28;20567;-64
2023/03/17 08:22:56;;;;;;;2.33;0.93;;;;;;;5.80;100.00;99953.22;5110964;28;20285;-59
2023/03/17 08:25:23;;;;;;;0.97;0.50;;;;;;;6.01;100.00;99966.81;5110998;28;20658;-64
2023/03/17 08:27:50;;;;;;;0.67;0.67;;;;;;;6.02;100.00;99965.94;5110936;28;20221;-64
2023/03/17 08:30:19;;;;;;;1.17;1.00;;;;;;;6.22;100.00;99972.75;5110939;28;20232;-60
2023/03/17 08:32:46;;;;;;;1.07;0.83;;;;;;;6.21;100.00;99967.72;5111160;28;20266;-60
2023/03/17 08:35:14;;;;;;;1.40;0.97;;;;;;;6.18;100.00;99967.84;5110725;27;20216;-60
2023/03/17 08:37:42;;;;;;;0.73;0.67;;;;;;;6.38;100.00;99970.41;5110704;28;20254;-60
2023/03/17 08:40:12;;;;;;;1.67;1.13;;;;;;;6.44;100.00;99970.16;5110787;28;20278;-64
2023/03/17 08:42:40;;;;;;;1.33;0.90;;;;;;;6.62;100.00;99967.75;5110822;27;20209;-64
2023/03/17 08:45:08;;;;;;;1.23;0.80;;;;;;;6.69;100.00;99969.13;5110995;28;20205;-59
2023/03/17 08:47:36;;;;;;;1.07;0.50;;;;;;;6.99;100.00;99962.75;5110682;28;20215;-64
2023/03/17 08:50:04;;;;;;;0.65;0.50;;;;;;;6.90;100.00;99964.88;5110702;28;20197;-64
2023/03/17 08:52:31;;;;;;;4.30;2.10;;;;;;;6.92;100.00;99976.63;5110876;28;20338;-64
2023/03/17 08:54:58;;;;;;;0.63;0.63;;;;;;;7.01;100.00;99960.13;5110628;28;20197;-60
2023/03/17 08:57:26;;;;;;;1.23;1.13;;;;;;;7.20;100.00;99955.06;5110381;28;20224;-64
2023/03/17 08:59:54;;;;;;;2.00;1.13;;;;;;;7.48;100.00;99959.75;5110541;28;20261;-60
2023/03/17 09:02:21;;;;;;;1.40;0.93;;;;;;;7.96;100.00;99955.81;5110397;28;20224;-60
2023/03/17 09:04:48;;;;;;;1.13;0.90;;;;;;;8.03;100.00;99957.19;5110387;28;20236;-64
2023/03/17 09:07:15;;;;;;;0.80;0.80;;;;;;;8.30;100.00;99955.03;5110601;28;20204;-64
2023/03/17 09:09:42;;;;;;;2.37;1.20;;;;;;;8.60;100.00;99951.88;5110328;28;20197;-60
2023/03/17 09:12:10;;;;;;;1.73;1.53;;;;;;;8.60;100.00;99957.81;5110297;28;20236;-64
2023/03/17 09:14:39;;;;;;;0.90;0.80;;;;;;;8.55;100.00;99956.38;5109956;28;20586;-64
2023/03/17 09:17:07;;;;;;;2.00;1.40;;;;;;;8.78;100.00;99950.94;5110387;28;20205;-60
2023/03/17 09:19:34;;;;;;;1.90;1.60;;;;;;;8.88;100.00;99945.41;5110257;28;20209;-60
2023/03/17 09:22:01;;;;;;;2.23;1.30;;;;;;;8.79;100.00;99952.63;5110016;28;20207;-60
2023/03/17 09:24:29;;;;;;;1.47;1.03;;;;;;;8.84;100.00;99954.91;5110110;28;20190;-64
2023/03/17 09:26:58;;;;;;;1.70;1.00;;;;;;;9.01;97.52;99951.50;5109755;28;20205;-64
2023/03/17 09:29:26;;;;;;;1.50;1.00;;;;;;;9.03;100.00;99957.34;5110180;28;20239;-64
2023/03/17 09:31:55;;;;;;;1.43;0.83;;;;;;;9.20;100.00;99957.28;5109914;28;20732;-64
2023/03/17 09:34:23;;;;;;;1.23;1.13;;;;;;;9.24;100.00;99953.66;5109992;28;20217;-60
2023/03/17 09:36:50;;;;;;;1.23;1.00;;;;;;;9.27;100.00;99965.44;5110391;28;20653;-61
2023/03/17 09:39:17;;;;;;;1.23;1.13;;;;;;;9.26;100.00;99962.06;5110001;28;20708;-60
2023/03/17 09:41:58;;;;;;;0.83;0.80;;;;;;;8.90;100.00;99961.44;5110239;28;20211;-60
2023/03/17 09:44:37;;;;;;;1.10;1.00;;;;;;;8.53;100.00;99961.56;5109971;28;20220;-64
2023/03/17 09:47:22;;;;;;;0.70;0.70;;;;;;;8.93;100.00;99961.25;5109708;28;20197;-65
2023/03/17 09:49:50;;;;;;;1.33;0.87;;;;;;;8.68;100.00;99967.63;5110179;28;20670;-65
2023/03/17 09:52:22;;;;;;;1.40;1.00;;;;;;;8.84;99.95;99967.66;5109991;28;20228;-65
2023/03/17 09:54:49;;;;;;;0.40;0.40;;;;;;;9.04;100.00;99961.53;5109921;28;20197;-65
2023/03/17 09:57:19;;;;;;;1.43;1.00;;;;;;;9.10;100.00;99961.22;5110142;28;20197;-64
2023/03/17 09:59:50;;;;;;;1.67;1.20;;;;;;;9.08;100.00;99963.03;5109886;28;20194;-60
2023/03/17 10:02:25;;;;;;;1.53;1.43;;;;;;;8.87;100.00;99966.69;5110046;28;20209;-64
2023/03/17 10:04:52;;;;;;;1.40;1.23;;;;;;;8.75;100.00;99966.41;5110003;28;20249;-60
2023/03/17 10:07:27;;;;;;;1.17;0.70;;;;;;;8.87;100.00;99966.69;5110027;28;20229;-65
2023/03/17 10:10:00;;;;;;;1.53;1.43;;;;;;;8.94;99.86;99966.31;5109480;28;20205;-65
2023/03/17 10:12:38;;;;;;;2.03;1.50;;;;;;;9.02;96.37;99971.84;5109596;28;20232;-60
2023/03/17 10:15:15;;;;;;;2.43;1.30;;;;;;;8.78;93.51;99966.25;5109464;28;20198;-65
2023/03/17 10:17:43;;;;;;;3.67;1.53;;;;;;;9.01;97.47;99961.69;5109326;28;20228;-65
2023/03/17 10:20:15;;;;;;;1.00;0.60;;;;;;;8.67;97.48;99952.38;5109574;28;20200;-65
2023/03/17 10:22:46;;;;;;;1.10;1.00;;;;;;;8.70;100.00;99953.09;5109610;28;20227;-65
2023/03/17 10:25:15;;;;;;;3.40;2.03;;;;;;;9.01;100.00;99956.59;5109363;28;20228;-65
2023/03/17 10:27:46;;;;;;;1.77;1.17;;;;;;;9.03;93.58;99949.69;5109698;28;20221;-65
2023/03/17 10:30:16;;;;;;;0.80;0.80;;;;;;;8.93;94.23;99951.91;5109367;28;20688;-65
2023/03/17 10:32:45;;;;;;;1.33;0.70;;;;;;;9.11;94.81;99947.59;5109163;28;20294;-65
2023/03/17 10:35:14;;;;;;;1.13;1.03;;;;;;;9.14;94.31;99944.06;5109217;28;20288;-65
2023/03/17 10:37:41;;;;;;;1.03;0.97;;;;;;;9.11;93.95;99942.47;5109466;28;20737;-65
2023/03/17 10:40:19;;;;;;;1.83;1.23;;;;;;;9.33;91.64;99951.53;5112945;28;20208;-65
2023/03/17 10:42:48;;;;;;;0.60;0.60;;;;;;;9.14;94.09;99947.41;5113019;28;20801;-65
2023/03/17 10:45:18;;;;;;;1.97;1.40;;;;;;;9.16;95.33;99944.78;5113448;28;20201;-64
2023/03/17 10:47:48;;;;;;;1.63;1.50;;;;;;;8.87;91.01;99941.19;5112922;28;20306;-65
2023/03/17 10:50:21;;;;;;;2.47;1.13;;;;;;;8.87;92.21;99939.44;5112814;28;20211;-65
2023/03/17 10:52:53;;;;;;;2.70;1.40;;;;;;;8.82;96.69;99942.25;5112642;28;20282;-65
2023/03/17 10:55:23;;;;;;;1.03;0.97;;;;;;;8.89;94.01;99934.28;5112776;28;20209;-64
2023/03/17 10:57:53;;;;;;;1.73;1.20;;;;;;;8.98;95.43;99932.06;5112719;28;20217;-65
2023/03/17 11:00:22;;;;;;;2.00;1.57;;;;;;;9.04;94.55;99936.03;5112658;28;20288;-65
2023/03/17 11:02:56;;;;;;;2.10;1.90;;;;;;;9.48;97.07;99926.03;5112615;28;20717;-65
2023/03/17 11:05:25;;;;;;;1.63;1.47;;;;;;;9.38;92.09;99929.16;5112511;28;20202;-65
2023/03/17 11:07:58;;;;;;;2.90;1.70;;;;;;;9.50;96.25;99925.94;5112329;27;20778;-65
2023/03/17 11:10:27;;;;;;;3.10;1.70;;;;;;;9.31;99.59;99928.66;5112330;28;20193;-65
2023/03/17 11:12:59;;;;;;;3.67;2.10;;;;;;;9.40;94.16;99932.47;5112550;27;20248;-65
2023/03/17 11:15:32;;;;;;;2.37;1.43;;;;;;;9.47;92.70;99933.75;5112315;28;20284;-65
2023/03/17 11:18:03;;;;;;;2.00;1.40;;;;;;;9.61;88.83;99928.72;5112252;28;20224;-65
2023/03/17 11:20:48;;;;;;;1.50;1.20;;;;;;;9.56;86.88;99922.22;5112323;28;20201;-65
2023/03/17 11:23:26;;;;;;;2.20;1.60;;;;;;;9.56;86.91;99923.03;5112157;28;20256;-65
2023/03/17 11:26:05;;;;;;;3.23;2.07;;;;;;;9.38;87.33;99918.94;5111999;28;20665;-60
2023/03/17 11:28:38;;;;;;;1.90;1.53;;;;;;;9.52;85.05;99921.56;5112346;28;20221;-65
2023/03/17 11:31:09;;;;;;;1.37;1.10;;;;;;;9.54;84.88;99914.66;5112062;28;20214;-65
2023/03/17 11:33:46;;;;;;;1.63;1.00;;;;;;;9.51;85.22;99909.69;5111843;28;20217;-60
2023/03/17 11:36:29;;;;;;;4.10;2.23;;;;;;;9.65;81.29;99911.50;5112253;28;20197;-60
2023/03/17 11:39:03;;;;;;;10.07;4.43;;;;;;;9.40;79.77;99906.94;5111721;28;20232;-60
2023/03/17 11:41:57;;;;;;;3.23;2.00;;;;;;;9.70;82.54;99909.53;5111999;28;20270;-60